createdAt,value
2019-05-21T00:02:20.469Z,11.70
2019-05-21T00:04:48.541Z,11.60
2019-05-21T00:07:16.617Z,11.70
2019-05-21T00:09:44.682Z,11.70
2019-05-21T00:12:14.101Z,11.70
2019-05-21T00:14:42.260Z,11.70
2019-05-21T00:17:11.044Z,11.70
2019-05-21T00:19:39.122Z,11.70
2019-05-21T00:22:07.920Z,11.70
2019-05-21T00:24:36.000Z,11.70
2019-05-21T00:27:04.864Z,11.70
2019-05-21T00:29:44.812Z,11.70
2019-05-21T00:32:31.158Z,11.70
2019-05-21T00:35:17.612Z,11.70
2019-05-21T00:38:04.073Z,11.60
2019-05-21T00:40:50.513Z,11.60
2019-05-21T00:46:20.606Z,11.60
2019-05-21T00:48:48.629Z,11.60
2019-05-21T00:51:16.696Z,11.60
2019-05-21T00:53:44.737Z,11.60
2019-05-21T00:56:13.550Z,11.60
2019-05-21T00:58:41.630Z,11.60
2019-05-21T01:01:09.697Z,11.60
2019-05-21T01:03:37.771Z,11.60
2019-05-21T01:06:05.829Z,11.60
2019-05-21T01:08:33.914Z,11.60
2019-05-21T01:11:01.961Z,11.60
2019-05-21T01:13:30.044Z,11.50
2019-05-21T01:15:58.861Z,11.50
2019-05-21T01:18:26.927Z,11.50
2019-05-21T01:20:54.969Z,11.50
2019-05-21T01:23:23.006Z,11.50
2019-05-21T01:25:51.072Z,11.50
2019-05-21T01:28:19.109Z,11.50
2019-05-21T01:30:47.255Z,11.60
2019-05-21T01:33:15.298Z,11.50
2019-05-21T01:35:44.209Z,11.50
2019-05-21T01:38:12.274Z,11.50
2019-05-21T01:40:41.101Z,11.50
2019-05-21T01:43:09.177Z,11.50
2019-05-21T01:45:37.209Z,11.50
2019-05-21T01:48:05.251Z,11.50
2019-05-21T01:50:33.341Z,11.50
2019-05-21T01:53:02.259Z,11.50
2019-05-21T01:55:30.308Z,11.40
2019-05-21T01:57:59.157Z,11.50
2019-05-21T02:00:27.284Z,11.40
2019-05-21T02:02:55.321Z,11.50
2019-05-21T02:05:32.777Z,11.50
2019-05-21T02:07:52.713Z,11.50
2019-05-21T02:10:21.606Z,11.40
2019-05-21T02:12:49.650Z,11.40
2019-05-21T02:15:17.681Z,11.40
2019-05-21T02:17:45.809Z,11.40
2019-05-21T02:20:13.890Z,11.40
2019-05-21T02:22:42.774Z,11.50
2019-05-21T02:25:10.851Z,11.40
2019-05-21T02:27:39.747Z,11.50
2019-05-21T02:30:09.389Z,11.40
2019-05-21T02:32:35.885Z,11.50
2019-05-21T02:35:03.925Z,11.50
2019-05-21T02:37:32.859Z,11.40
2019-05-21T02:40:00.929Z,11.40
2019-05-21T02:42:28.979Z,11.40
2019-05-21T02:44:57.044Z,11.40
2019-05-21T02:47:25.960Z,11.40
2019-05-21T02:49:54.018Z,11.40
2019-05-21T02:52:22.082Z,11.40
2019-05-21T02:54:50.390Z,11.40
2019-05-21T02:57:18.536Z,11.40
2019-05-21T02:59:47.297Z,11.30
2019-05-21T03:02:19.572Z,11.30
2019-05-21T03:04:48.355Z,11.30
2019-05-21T03:07:18.239Z,11.30
2019-05-21T03:09:47.051Z,11.30
2019-05-21T03:12:15.137Z,11.20
2019-05-21T03:14:43.209Z,11.20
2019-05-21T03:17:12.018Z,11.20
2019-05-21T03:19:40.798Z,11.10
2019-05-21T03:22:08.855Z,11.10
2019-05-21T03:24:36.929Z,11.10
2019-05-21T03:27:05.738Z,11.10
2019-05-21T03:29:34.509Z,11.10
2019-05-21T03:32:02.567Z,11.10
2019-05-21T03:34:31.470Z,11.10
2019-05-21T03:36:59.547Z,11.10
2019-05-21T03:39:28.308Z,11.00
2019-05-21T03:41:56.492Z,11.00
2019-05-21T03:44:25.297Z,11.00
2019-05-21T03:46:53.350Z,11.00
2019-05-21T03:49:22.155Z,11.00
2019-05-21T03:51:50.285Z,11.00
2019-05-21T03:54:18.294Z,11.00
2019-05-21T03:56:46.342Z,11.00
2019-05-21T03:59:15.151Z,10.90
2019-05-21T04:01:43.180Z,10.90
2019-05-21T04:04:11.210Z,10.90
2019-05-21T04:06:51.128Z,10.90
2019-05-21T04:09:07.249Z,10.90
2019-05-21T04:11:35.398Z,10.90
2019-05-21T04:14:03.435Z,10.90
2019-05-21T04:16:34.511Z,10.90
2019-05-21T04:19:08.631Z,10.90
2019-05-21T04:21:36.682Z,10.90
2019-05-21T04:24:08.506Z,10.90
2019-05-21T04:26:32.768Z,10.90
2019-05-21T04:29:00.803Z,10.90
2019-05-21T04:31:28.891Z,10.90
2019-05-21T04:33:56.910Z,10.90
2019-05-21T04:36:24.973Z,10.90
2019-05-21T04:38:54.611Z,10.90
2019-05-21T04:41:23.407Z,10.90
2019-05-21T04:43:51.459Z,10.90
2019-05-21T04:46:20.368Z,10.90
2019-05-21T04:48:48.429Z,10.80
2019-05-21T04:51:16.500Z,10.80
2019-05-21T04:53:44.529Z,10.80
2019-05-21T04:56:12.557Z,10.80
2019-05-21T04:58:40.598Z,10.80
2019-05-21T05:01:08.607Z,10.80
2019-05-21T05:03:36.630Z,10.80
2019-05-21T05:06:05.445Z,10.90
2019-05-21T05:08:33.503Z,10.90
2019-05-21T05:11:02.428Z,10.90
2019-05-21T05:13:30.465Z,10.90
2019-05-21T05:15:59.339Z,10.90
2019-05-21T05:18:28.162Z,10.90
2019-05-21T05:20:56.217Z,10.80
2019-05-21T05:23:24.281Z,10.90
2019-05-21T05:25:52.350Z,11.00
2019-05-21T05:28:21.237Z,11.00
2019-05-21T05:30:50.056Z,11.00
2019-05-21T05:33:18.132Z,11.00
2019-05-21T05:35:46.224Z,11.00
2019-05-21T05:38:14.259Z,11.00
2019-05-21T05:40:43.135Z,11.00
2019-05-21T05:43:11.171Z,11.00
2019-05-21T05:45:39.210Z,11.00
2019-05-21T05:48:07.238Z,10.90
2019-05-21T05:50:36.946Z,10.90
2019-05-21T05:53:05.856Z,10.90
2019-05-21T05:55:33.884Z,10.90
2019-05-21T05:58:02.096Z,11.00
2019-05-21T06:00:30.304Z,11.00
2019-05-21T06:02:59.057Z,11.00
2019-05-21T06:05:27.109Z,11.00
2019-05-21T06:07:59.826Z,11.00
2019-05-21T06:10:24.004Z,11.00
2019-05-21T06:12:52.889Z,11.00
2019-05-21T06:15:20.902Z,10.90
2019-05-21T06:17:48.929Z,10.90
2019-05-21T06:20:16.974Z,10.90
2019-05-21T06:22:45.045Z,10.90
2019-05-21T06:25:13.114Z,10.90
2019-05-21T06:27:41.181Z,10.90
2019-05-21T06:30:09.261Z,10.90
2019-05-21T06:32:37.339Z,10.90
2019-05-21T06:35:05.365Z,10.90
2019-05-21T06:37:33.416Z,11.00
2019-05-21T06:40:01.438Z,11.00
2019-05-21T06:42:29.521Z,10.90
2019-05-21T06:44:58.314Z,10.90
2019-05-21T06:47:26.470Z,10.90
2019-05-21T06:49:55.410Z,10.80
2019-05-21T06:52:23.413Z,10.80
2019-05-21T06:54:52.309Z,10.80
2019-05-21T06:57:20.350Z,10.80
2019-05-21T06:59:49.986Z,10.70
2019-05-21T07:02:18.041Z,10.70
2019-05-21T07:04:46.950Z,10.80
2019-05-21T07:07:14.987Z,10.70
2019-05-21T07:09:43.081Z,10.80
2019-05-21T07:12:11.907Z,10.90
2019-05-21T07:14:39.945Z,10.90
2019-05-21T07:17:08.013Z,10.90
2019-05-21T07:19:36.906Z,10.90
2019-05-21T07:22:12.851Z,10.80
2019-05-21T07:24:33.795Z,10.90
2019-05-21T07:27:01.806Z,10.90
2019-05-21T07:29:30.609Z,11.00
2019-05-21T07:31:59.409Z,11.00
2019-05-21T07:34:27.526Z,11.00
2019-05-21T07:36:55.522Z,11.00
2019-05-21T07:39:23.554Z,11.00
2019-05-21T07:41:51.617Z,11.00
2019-05-21T07:44:19.645Z,11.10
2019-05-21T07:46:48.437Z,11.00
2019-05-21T07:49:16.521Z,10.90
2019-05-21T07:51:44.597Z,11.00
2019-05-21T07:54:12.663Z,10.90
2019-05-21T07:56:41.435Z,11.00
2019-05-21T07:59:10.354Z,11.00
2019-05-21T08:01:38.405Z,11.00
2019-05-21T08:04:06.615Z,11.00
2019-05-21T08:06:34.562Z,11.10
2019-05-21T08:09:13.129Z,11.10
2019-05-21T08:11:31.434Z,11.00
2019-05-21T08:13:59.465Z,11.00
2019-05-21T08:16:28.384Z,11.10
2019-05-21T08:18:56.422Z,11.10
2019-05-21T08:21:25.258Z,11.10
2019-05-21T08:23:53.406Z,11.10
2019-05-21T08:26:21.490Z,11.20
2019-05-21T08:28:49.583Z,11.20
2019-05-21T08:31:17.613Z,11.30
2019-05-21T08:33:45.682Z,11.20
2019-05-21T08:36:14.469Z,11.20
2019-05-21T08:38:42.516Z,11.20
2019-05-21T08:41:10.511Z,11.20
2019-05-21T08:43:38.546Z,11.30
2019-05-21T08:46:06.573Z,11.30
2019-05-21T08:48:34.611Z,11.30
2019-05-21T08:51:03.409Z,11.30
2019-05-21T08:53:31.490Z,11.20
2019-05-21T08:56:00.396Z,11.40
2019-05-21T08:58:28.450Z,11.30
2019-05-21T09:00:56.508Z,11.40
2019-05-21T09:03:25.286Z,11.50
2019-05-21T09:05:54.218Z,11.40
2019-05-21T09:08:22.249Z,11.40
2019-05-21T09:10:50.381Z,11.40
2019-05-21T09:13:18.382Z,11.40
2019-05-21T09:15:47.305Z,11.40
2019-05-21T09:18:15.362Z,11.40
2019-05-21T09:20:43.413Z,11.50
2019-05-21T09:23:12.244Z,11.70
2019-05-21T09:25:40.340Z,11.60
2019-05-21T09:28:08.350Z,11.60
2019-05-21T09:30:37.032Z,11.60
2019-05-21T09:33:05.013Z,11.90
2019-05-21T09:35:33.076Z,12.00
2019-05-21T09:38:01.109Z,12.30
2019-05-21T09:40:29.218Z,12.30
2019-05-21T09:42:57.257Z,12.40
2019-05-21T09:45:25.378Z,12.30
2019-05-21T09:47:53.450Z,12.30
2019-05-21T09:50:21.497Z,12.30
2019-05-21T09:52:49.565Z,12.20
2019-05-21T09:55:17.627Z,12.10
2019-05-21T09:57:51.456Z,12.10
2019-05-21T10:00:38.212Z,12.10
2019-05-21T10:03:08.782Z,12.10
2019-05-21T10:05:36.857Z,12.10
2019-05-21T10:08:05.036Z,12.00
2019-05-21T10:10:33.076Z,11.90
2019-05-21T10:13:01.163Z,11.90
2019-05-21T10:15:29.215Z,11.90
2019-05-21T10:17:58.007Z,11.70
2019-05-21T10:20:26.847Z,11.60
2019-05-21T10:22:54.866Z,11.60
2019-05-21T10:25:23.678Z,11.70
2019-05-21T10:27:51.729Z,11.70
2019-05-21T10:30:20.661Z,11.80
2019-05-21T10:32:48.711Z,11.80
2019-05-21T10:35:16.782Z,11.80
2019-05-21T10:37:54.568Z,11.80
2019-05-21T10:40:12.810Z,11.70
2019-05-21T10:42:40.890Z,11.80
2019-05-21T10:45:08.981Z,11.80
2019-05-21T10:47:37.018Z,11.80
2019-05-21T10:50:06.640Z,11.70
2019-05-21T10:52:35.409Z,11.70
2019-05-21T10:55:05.236Z,11.80
2019-05-21T10:57:33.303Z,11.80
2019-05-21T11:00:01.623Z,11.80
2019-05-21T11:02:33.598Z,11.80
2019-05-21T11:05:01.640Z,11.80
2019-05-21T11:07:29.677Z,11.80
2019-05-21T11:09:57.806Z,11.80
2019-05-21T11:12:25.923Z,11.90
2019-05-21T11:14:53.999Z,12.00
2019-05-21T11:17:22.070Z,12.00
2019-05-21T11:19:50.103Z,11.90
2019-05-21T11:22:18.204Z,11.80
2019-05-21T11:24:46.401Z,11.90
2019-05-21T11:27:14.441Z,11.90
2019-05-21T11:29:42.461Z,12.00
2019-05-21T11:32:10.495Z,11.90
2019-05-21T11:34:39.714Z,11.80
2019-05-21T11:37:07.747Z,11.80
2019-05-21T11:39:36.582Z,11.80
2019-05-21T11:42:04.732Z,11.80
2019-05-21T11:44:32.777Z,11.80
2019-05-21T11:47:01.585Z,11.80
2019-05-21T11:49:29.645Z,11.80
2019-05-21T11:51:58.426Z,11.90
2019-05-21T11:54:26.629Z,11.80
2019-05-21T11:56:54.670Z,11.90
2019-05-21T11:59:22.769Z,11.90
2019-05-21T12:01:50.846Z,12.00
2019-05-21T12:04:18.895Z,12.00
2019-05-21T12:06:46.950Z,12.00
2019-05-21T12:09:15.748Z,11.90
2019-05-21T12:11:43.814Z,12.00
2019-05-21T12:14:12.581Z,12.00
2019-05-21T12:16:41.491Z,12.10
2019-05-21T12:19:09.562Z,12.10
2019-05-21T12:21:37.626Z,12.20
2019-05-21T12:24:05.660Z,12.20
2019-05-21T12:26:33.666Z,12.20
2019-05-21T12:29:01.709Z,12.20
2019-05-21T12:31:31.341Z,12.00
2019-05-21T12:33:59.289Z,12.00
2019-05-21T12:36:28.130Z,12.10
2019-05-21T12:39:12.725Z,12.10
2019-05-21T12:41:24.256Z,12.20
2019-05-21T12:43:52.278Z,12.20
2019-05-21T12:46:21.195Z,12.10
2019-05-21T12:48:49.985Z,11.90
2019-05-21T12:51:18.074Z,11.90
2019-05-21T12:53:46.109Z,11.80
2019-05-21T12:56:14.937Z,11.70
2019-05-21T12:58:42.966Z,11.70
2019-05-21T13:01:11.906Z,11.70
2019-05-21T13:03:39.937Z,11.70
2019-05-21T13:06:08.749Z,11.70
2019-05-21T13:08:36.809Z,11.70
2019-05-21T13:11:04.891Z,11.80
2019-05-21T13:13:32.929Z,11.80
2019-05-21T13:16:01.017Z,11.90
2019-05-21T13:18:29.808Z,11.80
2019-05-21T13:20:57.867Z,11.80
2019-05-21T13:23:26.798Z,11.80
2019-05-21T13:25:54.926Z,11.80
2019-05-21T13:28:23.001Z,11.80
2019-05-21T13:30:51.902Z,11.80
2019-05-21T13:33:19.965Z,11.70
2019-05-21T13:35:48.042Z,11.80
2019-05-21T13:38:16.819Z,11.70
2019-05-21T13:40:45.648Z,11.70
2019-05-21T13:43:13.645Z,11.70
2019-05-21T13:45:41.770Z,11.60
2019-05-21T13:48:09.858Z,11.60
2019-05-21T13:50:38.012Z,11.60
2019-05-21T13:53:06.038Z,11.60
2019-05-21T13:55:34.246Z,11.60
2019-05-21T13:58:02.204Z,11.60
2019-05-21T14:00:32.993Z,11.70
2019-05-21T14:03:01.114Z,11.70
2019-05-21T14:05:29.157Z,11.70
2019-05-21T14:07:57.986Z,11.60
2019-05-21T14:10:26.026Z,11.60
2019-05-21T14:12:54.077Z,11.60
2019-05-21T14:15:22.109Z,11.60
2019-05-21T14:17:50.156Z,11.60
2019-05-21T14:20:18.226Z,11.60
2019-05-21T14:22:46.315Z,11.60
2019-05-21T14:25:14.354Z,11.60
2019-05-21T14:27:45.003Z,11.60
2019-05-21T14:30:11.254Z,11.60
2019-05-21T14:32:39.287Z,11.60
2019-05-21T14:35:07.314Z,11.60
2019-05-21T14:37:35.434Z,11.50
2019-05-21T14:40:03.493Z,11.50
2019-05-21T14:42:32.418Z,11.60
2019-05-21T14:45:00.500Z,11.50
2019-05-21T14:47:28.666Z,11.60
2019-05-21T14:49:56.690Z,11.60
2019-05-21T14:52:25.604Z,11.60
2019-05-21T14:54:53.659Z,11.60
2019-05-21T14:57:22.565Z,11.50
2019-05-21T14:59:50.593Z,11.50
2019-05-21T15:02:18.698Z,11.60
2019-05-21T15:04:46.900Z,11.50
2019-05-21T15:07:14.745Z,11.60
2019-05-21T15:09:42.790Z,11.50
2019-05-21T15:12:10.880Z,11.50
2019-05-21T15:14:38.940Z,11.50
2019-05-21T15:17:06.933Z,11.50
2019-05-21T15:19:34.967Z,11.60
2019-05-21T15:22:03.024Z,11.50
2019-05-21T15:24:33.614Z,11.50
2019-05-21T15:27:01.373Z,11.50
2019-05-21T15:29:29.428Z,11.50
2019-05-21T15:31:57.472Z,11.60
2019-05-21T15:34:26.304Z,11.50
2019-05-21T15:36:54.346Z,11.50
2019-05-21T15:39:22.399Z,11.50
2019-05-21T15:41:50.405Z,11.50
2019-05-21T15:44:18.990Z,11.50
2019-05-21T15:46:50.182Z,11.50
2019-05-21T15:49:15.122Z,11.60
2019-05-21T15:51:44.027Z,11.60
2019-05-21T15:54:12.047Z,11.50
2019-05-21T15:56:40.155Z,11.60
2019-05-21T15:59:08.221Z,11.60
2019-05-21T16:01:39.933Z,11.60
2019-05-21T16:04:04.353Z,11.60
2019-05-21T16:06:32.552Z,11.60
2019-05-21T16:09:00.646Z,11.60
2019-05-21T16:11:29.376Z,11.60
2019-05-21T16:13:56.738Z,11.60
2019-05-21T16:16:24.822Z,11.60
2019-05-21T16:18:52.901Z,11.50
2019-05-21T16:21:20.953Z,11.50
2019-05-21T16:23:49.754Z,11.50
2019-05-21T16:26:17.844Z,11.50
2019-05-21T16:28:45.868Z,11.50
2019-05-21T16:31:14.696Z,11.40
2019-05-21T16:33:43.593Z,11.50
2019-05-21T16:36:11.632Z,11.40
2019-05-21T16:38:39.698Z,11.40
2019-05-21T16:41:07.728Z,11.50
2019-05-21T16:43:35.776Z,11.50
2019-05-21T16:46:03.909Z,11.50
2019-05-21T16:48:31.973Z,11.40
2019-05-21T16:51:01.029Z,11.40
2019-05-21T16:53:29.063Z,11.40
2019-05-21T16:55:57.093Z,11.40
2019-05-21T16:58:26.007Z,11.40
2019-05-21T17:00:54.099Z,11.30
2019-05-21T17:03:22.134Z,11.40
2019-05-21T17:05:51.026Z,11.30
2019-05-21T17:08:19.133Z,11.30
2019-05-21T17:10:47.161Z,11.40
2019-05-21T17:13:15.986Z,11.30
2019-05-21T17:15:44.016Z,11.20
2019-05-21T17:18:12.806Z,11.20
2019-05-21T17:20:41.726Z,11.20
2019-05-21T17:23:10.501Z,11.20
2019-05-21T17:25:38.538Z,11.20
2019-05-21T17:28:06.610Z,11.20
2019-05-21T17:30:35.421Z,11.20
2019-05-21T17:33:03.515Z,11.20
2019-05-21T17:35:31.594Z,11.20
2019-05-21T17:37:59.634Z,11.20
2019-05-21T17:40:27.670Z,11.20
2019-05-21T17:42:55.723Z,11.10
2019-05-21T17:45:23.756Z,11.10
2019-05-21T17:47:52.691Z,11.10
2019-05-21T17:50:20.816Z,11.10
2019-05-21T17:52:48.841Z,11.10
2019-05-21T17:55:16.882Z,11.00
2019-05-21T17:57:44.916Z,11.10
2019-05-21T18:00:13.714Z,11.10
2019-05-21T18:02:41.763Z,11.10
2019-05-21T18:05:10.569Z,11.10
2019-05-21T18:07:38.601Z,11.00
2019-05-21T18:10:06.707Z,11.00
2019-05-21T18:12:35.505Z,11.00
2019-05-21T18:15:03.550Z,11.00
2019-05-21T18:17:31.553Z,11.00
2019-05-21T18:19:59.722Z,11.10
2019-05-21T18:22:27.690Z,11.10
2019-05-21T18:24:55.729Z,11.10
2019-05-21T18:27:24.531Z,11.00
2019-05-21T18:29:52.576Z,11.00
2019-05-21T18:32:20.774Z,11.10
2019-05-21T18:34:49.662Z,11.10
2019-05-21T18:37:17.693Z,11.10
2019-05-21T18:39:45.742Z,11.00
2019-05-21T18:42:21.612Z,11.10
2019-05-21T18:44:41.942Z,11.10
2019-05-21T18:47:10.237Z,11.10
2019-05-21T18:49:39.822Z,11.00
2019-05-21T18:52:07.881Z,11.00
2019-05-21T18:54:36.861Z,10.90
2019-05-21T18:57:04.970Z,10.90
2019-05-21T18:59:33.946Z,11.00
2019-05-21T19:02:02.750Z,10.90
2019-05-21T19:04:30.837Z,10.90
2019-05-21T19:06:58.866Z,10.90
2019-05-21T19:09:27.661Z,11.00
2019-05-21T19:11:56.580Z,11.00
2019-05-21T19:14:25.449Z,11.00
2019-05-21T19:16:53.550Z,11.00
2019-05-21T19:19:21.594Z,11.00
2019-05-21T19:21:49.653Z,11.00
2019-05-21T19:24:17.726Z,11.00
2019-05-21T19:26:46.515Z,11.00
2019-05-21T19:29:14.709Z,11.00
2019-05-21T19:31:42.765Z,11.00
2019-05-21T19:34:10.889Z,11.00
2019-05-21T19:36:39.021Z,11.00
2019-05-21T19:39:07.055Z,11.00
2019-05-21T19:41:35.857Z,11.00
2019-05-21T19:44:03.890Z,11.00
2019-05-21T19:46:32.031Z,11.00
2019-05-21T19:49:00.077Z,11.00
2019-05-21T19:51:28.981Z,11.00
2019-05-21T19:53:57.046Z,11.00
2019-05-21T19:56:25.159Z,10.90
2019-05-21T19:58:53.213Z,11.00
2019-05-21T20:01:21.239Z,11.00
2019-05-21T20:03:50.041Z,11.00
2019-05-21T20:06:18.089Z,10.90
2019-05-21T20:08:46.930Z,10.80
2019-05-21T20:11:14.986Z,10.80
2019-05-21T20:13:43.076Z,10.80
2019-05-21T20:16:11.168Z,10.80
2019-05-21T20:18:39.185Z,10.90
2019-05-21T20:21:08.027Z,10.80
2019-05-21T20:23:36.014Z,10.80
2019-05-21T20:26:04.834Z,10.80
2019-05-21T20:28:32.861Z,10.80
2019-05-21T20:31:00.966Z,10.80
2019-05-21T20:33:29.021Z,10.90
2019-05-21T20:35:57.823Z,10.90
2019-05-21T20:38:25.852Z,10.80
2019-05-21T20:40:53.890Z,10.90
2019-05-21T20:43:21.918Z,10.90
2019-05-21T20:45:50.718Z,10.90
2019-05-21T20:48:18.755Z,10.80
2019-05-21T20:50:46.802Z,10.80
2019-05-21T20:53:14.833Z,10.90
2019-05-21T20:55:42.974Z,10.90
2019-05-21T20:58:11.046Z,10.90
2019-05-21T21:00:53.944Z,10.90
2019-05-21T21:03:23.503Z,10.80
2019-05-21T21:05:51.541Z,10.80
2019-05-21T21:08:19.591Z,10.80
2019-05-21T21:10:47.585Z,10.80
2019-05-21T21:13:16.400Z,10.70
2019-05-21T21:15:45.165Z,10.70
2019-05-21T21:18:14.093Z,10.80
2019-05-21T21:20:42.122Z,10.80
2019-05-21T21:23:11.060Z,10.70
2019-05-21T21:25:39.094Z,10.70
2019-05-21T21:28:07.964Z,10.70
2019-05-21T21:30:35.969Z,10.70
2019-05-21T21:33:04.026Z,10.70
2019-05-21T21:35:32.062Z,10.70
2019-05-21T21:38:00.096Z,10.70
2019-05-21T21:40:28.132Z,10.70
2019-05-21T21:42:56.133Z,10.70
2019-05-21T21:45:24.185Z,10.70
2019-05-21T21:47:52.241Z,10.70
2019-05-21T21:50:20.265Z,10.70
2019-05-21T21:52:56.530Z,10.70
2019-05-21T21:55:24.957Z,10.70
2019-05-21T21:57:53.015Z,10.70
2019-05-21T22:00:32.850Z,10.70
2019-05-21T22:03:01.682Z,10.70
2019-05-21T22:05:29.738Z,10.60
2019-05-21T22:07:57.997Z,10.70
2019-05-21T22:10:26.790Z,10.70
2019-05-21T22:12:54.827Z,10.60
2019-05-21T22:15:23.050Z,10.60
2019-05-21T22:17:51.917Z,10.60
2019-05-21T22:20:20.821Z,10.60
2019-05-21T22:22:49.694Z,10.60
2019-05-21T22:25:18.505Z,10.60
2019-05-21T22:27:46.582Z,10.60
2019-05-21T22:30:14.633Z,10.60
2019-05-21T22:32:42.629Z,10.60
2019-05-21T22:35:10.658Z,10.70
2019-05-21T22:37:39.458Z,10.60
2019-05-21T22:40:07.481Z,10.60
2019-05-21T22:42:35.529Z,10.70
2019-05-21T22:45:08.619Z,10.60
2019-05-21T22:47:32.362Z,10.60
2019-05-21T22:50:00.449Z,10.70
2019-05-21T22:52:28.458Z,10.60
2019-05-21T22:54:56.562Z,10.60
2019-05-21T22:57:26.315Z,10.60
2019-05-21T22:59:52.737Z,10.50
2019-05-21T23:02:20.774Z,10.50
2019-05-21T23:04:49.574Z,10.50
2019-05-21T23:07:17.614Z,10.50
2019-05-21T23:09:45.649Z,10.50
2019-05-21T23:12:13.662Z,10.60
2019-05-21T23:14:42.515Z,10.50
2019-05-21T23:17:10.482Z,10.50
2019-05-21T23:19:38.514Z,10.50
2019-05-21T23:22:06.549Z,10.60
2019-05-21T23:24:35.349Z,10.60
2019-05-21T23:27:04.141Z,10.60
2019-05-21T23:29:32.240Z,10.60
2019-05-21T23:32:00.291Z,10.60
2019-05-21T23:34:28.322Z,10.60
2019-05-21T23:36:56.349Z,10.60
2019-05-21T23:39:24.382Z,10.60
2019-05-21T23:41:53.219Z,10.60
2019-05-21T23:44:21.243Z,10.60
2019-05-21T23:46:50.038Z,10.60
2019-05-21T23:49:18.930Z,10.60
2019-05-21T23:51:47.004Z,10.60
2019-05-21T23:54:15.818Z,10.60
2019-05-21T23:56:43.862Z,10.60
2019-05-21T23:59:11.902Z,10.60
